Time;durP1;ratioP1;P1;durP2;ratioP2;P2;SDS_P1;SDS_P2;PMS_P1;PMS_P2;Temp;Humidity;BMP_temperature;BMP_pressure;BME280_temperature;BME280_humidity;BME280_pressure;Samples;Min_cycle;Max_cycle;Signal;HPM_P1;HPM_P2
2023/05/08 00:02:05;;;;;;;8.43;4.95;;;;;;;13.02;60.86;102428.09;7389596;19;20015;-44
2023/05/08 00:04:32;;;;;;;7.50;4.80;;;;;;;13.00;61.08;102427.31;7392378;19;20019;-46
2023/05/08 00:06:59;;;;;;;8.40;4.60;;;;;;;13.00;60.86;102432.63;7389005;19;20015;-44
2023/05/08 00:09:26;;;;;;;8.02;5.10;;;;;;;12.96;61.11;102423.13;7389307;19;20043;-44
2023/05/08 00:11:53;;;;;;;7.28;4.70;;;;;;;12.92;61.47;102420.63;7390536;19;20022;-44
2023/05/08 00:14:20;;;;;;;8.23;4.80;;;;;;;12.91;61.28;102418.06;7390808;19;20014;-44
2023/05/08 00:16:47;;;;;;;7.78;4.70;;;;;;;12.90;61.28;102422.53;7386413;19;20035;-44
2023/05/08 00:19:14;;;;;;;6.57;4.40;;;;;;;12.93;61.10;102425.03;7389019;19;20034;-43
2023/05/08 00:21:42;;;;;;;7.60;4.97;;;;;;;12.85;61.09;102419.25;7389925;19;20019;-44
2023/05/08 00:24:09;;;;;;;7.20;4.60;;;;;;;12.89;61.20;102425.25;7390597;19;20036;-45
2023/05/08 00:26:36;;;;;;;8.15;4.68;;;;;;;12.73;61.45;102427.06;7386076;19;20022;-46
2023/05/08 00:29:03;;;;;;;7.38;4.82;;;;;;;12.72;61.51;102428.03;7389330;19;20018;-45
2023/05/08 00:31:32;;;;;;;8.00;4.95;;;;;;;12.74;61.27;102426.97;7388230;19;20363;-46
2023/05/08 00:34:00;;;;;;;6.78;4.32;;;;;;;12.81;60.71;102432.81;7389597;19;20039;-47
2023/05/08 00:36:27;;;;;;;7.40;4.57;;;;;;;12.85;60.79;102427.25;7387432;19;20099;-44
2023/05/08 00:38:54;;;;;;;6.57;4.65;;;;;;;12.83;60.97;102423.81;7388735;19;20022;-44
2023/05/08 00:41:21;;;;;;;6.55;4.72;;;;;;;12.88;60.57;102431.53;7389924;19;20074;-44
2023/05/08 00:43:50;;;;;;;6.78;4.28;;;;;;;12.92;60.75;102433.94;7390017;19;20091;-44
2023/05/08 00:46:17;;;;;;;7.25;4.80;;;;;;;12.91;60.38;102442.00;7388008;19;20383;-44
2023/05/08 00:48:45;;;;;;;8.20;5.00;;;;;;;12.79;61.03;102432.06;7387021;19;20035;-44
2023/05/08 00:51:12;;;;;;;8.05;4.93;;;;;;;12.79;60.83;102422.28;7390537;19;20414;-45
2023/05/08 00:53:41;;;;;;;6.75;4.70;;;;;;;12.82;60.80;102424.78;7389654;19;20014;-45
2023/05/08 00:56:14;;;;;;;6.82;4.18;;;;;;;12.77;61.09;102421.50;7389333;19;20031;-46
2023/05/08 00:58:43;;;;;;;7.93;4.90;;;;;;;12.75;61.31;102419.88;7388848;19;20022;-45
2023/05/08 01:01:10;;;;;;;7.75;4.82;;;;;;;12.69;61.23;102424.59;7387885;19;20036;-47
2023/05/08 01:03:38;;;;;;;7.30;4.57;;;;;;;12.68;61.25;102416.72;7389596;19;20019;-45
2023/05/08 01:06:05;;;;;;;7.22;4.85;;;;;;;12.58;61.64;102421.66;7387064;19;20022;-45
2023/05/08 01:08:33;;;;;;;6.35;4.50;;;;;;;12.64;61.40;102423.13;7387438;19;20367;-45
2023/05/08 01:11:37;;;;;;;7.55;4.80;;;;;;;12.72;60.89;102418.25;7388976;19;20039;-45
2023/05/08 01:14:28;;;;;;;6.60;4.60;;;;;;;12.73;61.40;102419.09;7388877;19;20011;-50
2023/05/08 01:17:15;;;;;;;7.55;4.53;;;;;;;12.69;61.12;102424.59;7387265;19;20039;-50
2023/05/08 01:20:00;;;;;;;5.95;4.45;;;;;;;12.63;61.23;102418.75;7388272;19;20019;-49
2023/05/08 01:23:00;;;;;;;7.22;4.82;;;;;;;12.59;61.32;102418.09;7389031;19;20097;-48
2023/05/08 01:25:53;;;;;;;7.53;4.68;;;;;;;12.61;61.13;102415.34;7387791;19;20339;-49
2023/05/08 01:28:38;;;;;;;8.23;4.78;;;;;;;12.57;60.93;102419.09;7386580;19;20056;-44
2023/05/08 01:31:12;;;;;;;8.77;4.63;;;;;;;12.56;61.19;102414.75;7395406;19;20022;-44
2023/05/08 01:33:48;;;;;;;6.65;4.70;;;;;;;12.52;61.22;102415.84;7395957;19;20032;-46
2023/05/08 01:36:38;;;;;;;6.63;5.00;;;;;;;12.55;61.26;102421.81;7392863;19;20018;-45
2023/05/08 01:39:33;;;;;;;8.82;5.20;;;;;;;12.45;61.32;102423.28;7395258;19;20014;-45
2023/05/08 01:42:17;;;;;;;7.05;4.88;;;;;;;12.50;61.38;102417.72;7394256;19;20371;-45
2023/05/08 01:44:50;;;;;;;7.53;4.93;;;;;;;12.51;61.13;102417.63;7394830;19;20020;-47
2023/05/08 01:47:22;;;;;;;7.55;4.95;;;;;;;12.46;61.15;102417.03;7391553;19;20038;-47
2023/05/08 01:50:01;;;;;;;7.60;5.05;;;;;;;12.50;60.98;102415.06;7392619;19;20014;-45
2023/05/08 01:52:35;;;;;;;7.10;4.80;;;;;;;12.49;61.06;102414.22;7392446;19;20011;-45
2023/05/08 01:55:07;;;;;;;6.82;4.78;;;;;;;12.36;61.24;102414.03;7394494;19;20094;-45
2023/05/08 01:57:39;;;;;;;7.07;4.97;;;;;;;12.38;60.99;102414.78;7391501;19;20025;-45
2023/05/08 02:00:08;;;;;;;7.15;5.07;;;;;;;12.36;61.27;102419.34;7392921;19;20028;-46
2023/05/08 02:02:35;;;;;;;8.30;5.53;;;;;;;12.39;61.23;102419.16;7394977;19;20025;-48
2023/05/08 02:05:07;;;;;;;9.63;5.25;;;;;;;12.37;60.87;102417.56;7392482;19;20053;-45
2023/05/08 02:07:38;;;;;;;9.70;5.63;;;;;;;12.32;61.09;102416.91;7392670;19;20019;-44
2023/05/08 02:10:07;;;;;;;9.07;5.45;;;;;;;12.22;61.29;102415.72;7394001;19;20471;-45
2023/05/08 02:12:36;;;;;;;6.63;5.10;;;;;;;12.20;61.31;102410.47;7393247;19;20014;-45
2023/05/08 02:15:06;;;;;;;8.15;5.10;;;;;;;12.25;61.32;102421.72;7393334;19;20021;-43
2023/05/08 02:17:37;;;;;;;7.20;5.13;;;;;;;12.29;61.10;102419.78;7392712;19;20517;-44
2023/05/08 02:20:06;;;;;;;7.43;5.70;;;;;;;12.22;61.26;102419.22;7392285;19;20126;-44
2023/05/08 02:22:35;;;;;;;7.95;5.50;;;;;;;12.16;61.36;102416.91;7394899;19;20035;-45
2023/05/08 02:25:02;;;;;;;8.23;5.13;;;;;;;12.13;61.44;102419.72;7393091;19;20022;-46
2023/05/08 02:27:30;;;;;;;6.95;5.15;;;;;;;12.14;61.27;102416.13;7391979;19;20044;-45
2023/05/08 02:29:58;;;;;;;7.50;5.47;;;;;;;12.16;61.11;102425.72;7392864;19;20022;-44
2023/05/08 02:32:26;;;;;;;8.23;5.55;;;;;;;12.15;61.40;102425.81;7392207;19;20499;-45
2023/05/08 02:34:54;;;;;;;6.95;5.28;;;;;;;12.13;61.15;102427.69;7392437;19;20065;-47
2023/05/08 02:37:30;;;;;;;6.40;4.82;;;;;;;12.15;61.24;102429.31;7390890;19;20018;-47
2023/05/08 02:39:58;;;;;;;7.13;5.40;;;;;;;12.15;61.26;102428.47;7391467;19;20037;-46
2023/05/08 02:42:25;;;;;;;8.48;5.45;;;;;;;12.15;61.28;102429.31;7391593;19;20130;-45
2023/05/08 02:44:53;;;;;;;8.25;5.60;;;;;;;12.16;60.99;102422.22;7392792;19;20059;-48
2023/05/08 02:47:26;;;;;;;8.40;5.47;;;;;;;12.05;61.34;102422.78;7391769;19;20022;-45
2023/05/08 02:50:01;;;;;;;9.50;5.78;;;;;;;11.97;61.30;102419.66;7392691;19;20014;-45
2023/05/08 02:53:02;;;;;;;8.10;5.55;;;;;;;12.04;61.06;102414.91;7393610;19;20100;-44
2023/05/08 02:55:41;;;;;;;7.80;5.63;;;;;;;12.03;61.06;102414.03;7391385;19;20026;-45
2023/05/08 02:58:23;;;;;;;8.32;5.50;;;;;;;12.03;61.38;102416.69;7391297;19;20011;-45
2023/05/08 03:01:07;;;;;;;8.93;5.75;;;;;;;12.03;61.18;102419.34;7392760;19;20015;-45
2023/05/08 03:03:40;;;;;;;7.77;5.63;;;;;;;12.03;61.10;102419.34;7392928;19;20128;-45
2023/05/08 03:06:15;;;;;;;8.25;5.65;;;;;;;11.95;61.23;102411.78;7391402;19;20279;-45
2023/05/08 03:08:44;;;;;;;7.50;5.60;;;;;;;11.90;61.61;102408.50;7390463;19;20381;-45
2023/05/08 03:11:14;;;;;;;7.82;5.80;;;;;;;11.92;61.39;102406.66;7391056;19;20039;-46
2023/05/08 03:13:43;;;;;;;7.88;5.70;;;;;;;11.84;61.52;102398.22;7392488;19;20018;-44
2023/05/08 03:16:19;;;;;;;7.78;5.80;;;;;;;11.74;61.86;102404.91;7391124;19;20047;-44
2023/05/08 03:19:00;;;;;;;7.88;5.68;;;;;;;11.76;61.79;102397.75;7391117;19;20025;-44
2023/05/08 03:21:30;;;;;;;11.13;5.93;;;;;;;11.80;61.63;102391.34;7390634;19;20046;-45
2023/05/08 03:24:00;;;;;;;7.20;5.57;;;;;;;11.84;61.30;102390.28;7392781;19;20078;-46
2023/05/08 03:26:28;;;;;;;9.63;6.20;;;;;;;11.74;61.64;102394.31;7390701;19;20542;-46
2023/05/08 03:28:57;;;;;;;9.82;5.85;;;;;;;11.68;61.86;102394.63;7390740;19;20084;-46
2023/05/08 03:31:25;;;;;;;8.23;5.75;;;;;;;11.77;61.42;102390.63;7391967;19;20090;-44
2023/05/08 03:33:54;;;;;;;8.55;5.97;;;;;;;11.74;61.51;102391.66;7391564;19;20109;-45
2023/05/08 03:36:21;;;;;;;8.27;5.55;;;;;;;11.71;61.70;102399.75;7390523;19;20554;-44
2023/05/08 03:38:48;;;;;;;8.02;6.28;;;;;;;11.65;61.53;102390.34;7389798;19;20015;-44
2023/05/08 03:41:16;;;;;;;8.07;5.72;;;;;;;11.70;61.55;102395.41;7391811;19;20116;-44
2023/05/08 03:43:43;;;;;;;7.85;5.68;;;;;;;11.68;61.66;102390.19;7389857;19;20018;-43
2023/05/08 03:46:11;;;;;;;9.48;6.05;;;;;;;11.74;61.56;102385.47;7390796;19;20029;-43
2023/05/08 03:48:39;;;;;;;10.02;6.20;;;;;;;11.76;61.40;102380.97;7390737;19;20130;-43
2023/05/08 03:51:06;;;;;;;7.75;6.30;;;;;;;11.64;61.75;102378.00;7391465;19;20022;-44
2023/05/08 03:53:36;;;;;;;8.80;6.28;;;;;;;11.57;61.67;102381.91;7390992;19;20030;-45
2023/05/08 03:56:03;;;;;;;8.85;5.82;;;;;;;11.57;61.76;102376.63;7389728;19;20011;-44
2023/05/08 03:58:38;;;;;;;9.13;6.32;;;;;;;11.62;61.74;102379.03;7390607;19;20385;-45
2023/05/08 04:01:40;;;;;;;8.60;5.97;;;;;;;11.63;61.78;102378.06;7390844;19;20440;-44
2023/05/08 04:04:16;;;;;;;9.27;6.30;;;;;;;11.65;61.38;102371.75;7387880;19;20011;-45
2023/05/08 04:06:56;;;;;;;8.50;6.60;;;;;;;11.63;61.27;102372.78;7389479;19;20014;-43
2023/05/08 04:09:34;;;;;;;7.97;6.25;;;;;;;11.64;61.61;102371.84;7389624;19;20487;-44
2023/05/08 04:12:18;;;;;;;8.70;6.47;;;;;;;11.64;61.72;102382.47;7390440;19;20028;-44
2023/05/08 04:14:54;;;;;;;8.32;6.15;;;;;;;11.65;61.39;102385.03;7388505;19;20097;-43
2023/05/08 04:17:46;;;;;;;9.68;6.63;;;;;;;11.65;61.47;102392.13;7389081;19;20019;-43
2023/05/08 04:20:19;;;;;;;9.55;6.18;;;;;;;11.62;61.76;102386.97;7389859;19;20014;-45
2023/05/08 04:22:49;;;;;;;9.65;6.05;;;;;;;11.60;61.55;102394.16;7390421;19;20378;-46
2023/05/08 04:25:18;;;;;;;8.57;6.25;;;;;;;11.66;61.41;102392.03;7390806;19;20017;-45
2023/05/08 04:27:47;;;;;;;9.30;6.22;;;;;;;11.65;61.39;102394.78;7388082;19;20023;-44
2023/05/08 04:30:14;;;;;;;9.95;6.10;;;;;;;11.65;61.38;102393.00;7389229;19;20375;-44
2023/05/08 04:32:42;;;;;;;8.27;5.93;;;;;;;11.70;61.26;102400.72;7389736;19;20018;-44
2023/05/08 04:35:13;;;;;;;7.90;6.03;;;;;;;11.65;61.38;102400.94;7388263;19;20015;-44
2023/05/08 04:37:42;;;;;;;9.50;6.45;;;;;;;11.65;61.26;102395.66;7386742;19;20015;-44
2023/05/08 04:40:09;;;;;;;10.45;6.25;;;;;;;11.62;61.41;102409.06;7387417;19;20089;-44
2023/05/08 04:42:38;;;;;;;7.75;5.80;;;;;;;11.61;61.52;102409.16;7388995;19;20104;-44
2023/05/08 04:45:05;;;;;;;8.90;5.72;;;;;;;11.61;61.37;102410.00;7389095;19;20025;-46
2023/05/08 04:47:33;;;;;;;9.52;6.13;;;;;;;11.59;61.72;102409.22;7387334;19;20328;-44
2023/05/08 04:50:01;;;;;;;8.38;5.95;;;;;;;11.57;61.41;102404.94;7389128;19;20059;-44
2023/05/08 04:52:29;;;;;;;9.20;5.88;;;;;;;11.66;61.23;102401.81;7387708;19;20524;-45
2023/05/08 04:54:56;;;;;;;8.90;6.05;;;;;;;11.68;60.85;102403.44;7389151;19;20047;-44
2023/05/08 04:57:23;;;;;;;9.00;6.15;;;;;;;11.68;61.03;102398.16;7387895;19;20026;-44
2023/05/08 04:59:50;;;;;;;8.25;6.25;;;;;;;11.78;60.84;102403.81;7387850;19;20834;-44
2023/05/08 05:02:17;;;;;;;7.97;5.88;;;;;;;11.79;60.54;102397.59;7388766;19;20018;-44
2023/05/08 05:04:44;;;;;;;9.35;5.93;;;;;;;11.80;60.92;102403.75;7393150;19;20051;-45
2023/05/08 05:07:11;;;;;;;8.77;5.82;;;;;;;11.82;61.02;102407.16;7394896;19;20044;-45
2023/05/08 05:09:38;;;;;;;8.70;5.90;;;;;;;11.87;60.75;102416.66;7394286;19;20028;-44
2023/05/08 05:12:06;;;;;;;8.48;5.53;;;;;;;11.88;60.41;102409.53;7394999;19;20022;-44
2023/05/08 05:14:33;;;;;;;7.85;5.55;;;;;;;11.78;60.75;102409.13;7395517;19;20021;-47
2023/05/08 05:17:00;;;;;;;8.75;5.80;;;;;;;11.79;60.63;102413.53;7394988;19;20086;-43
2023/05/08 05:19:27;;;;;;;8.90;5.75;;;;;;;11.78;60.44;102419.75;7395186;19;20019;-44
2023/05/08 05:21:54;;;;;;;9.35;6.13;;;;;;;11.83;60.61;102414.19;7396161;19;20532;-44
2023/05/08 05:24:21;;;;;;;7.72;5.85;;;;;;;11.86;60.37;102417.56;7395936;19;20014;-47
2023/05/08 05:26:48;;;;;;;9.20;5.65;;;;;;;11.87;60.19;102416.66;7391958;19;20368;-48
2023/05/08 05:29:15;;;;;;;7.32;5.50;;;;;;;11.95;60.13;102417.09;7395011;19;20021;-45
2023/05/08 05:31:42;;;;;;;8.95;5.40;;;;;;;11.97;60.39;102418.81;7393634;19;20025;-49
2023/05/08 05:34:09;;;;;;;7.50;5.57;;;;;;;12.00;60.56;102421.31;7395653;19;20518;-51
2023/05/08 05:36:36;;;;;;;9.73;5.57;;;;;;;12.01;60.45;102418.56;7394447;19;20039;-49
2023/05/08 05:39:03;;;;;;;9.40;6.07;;;;;;;12.08;60.03;102425.28;7395561;19;20018;-45
2023/05/08 05:41:30;;;;;;;9.13;5.82;;;;;;;12.03;59.93;102424.66;7394160;19;20019;-46
2023/05/08 05:43:57;;;;;;;8.23;5.72;;;;;;;12.05;59.98;102422.78;7395625;19;20015;-48
2023/05/08 05:46:29;;;;;;;8.90;5.65;;;;;;;12.11;59.87;102440.19;7394028;19;20081;-47
2023/05/08 05:49:00;;;;;;;10.02;5.47;;;;;;;12.16;59.65;102440.78;7394646;19;20033;-46
2023/05/08 05:51:27;;;;;;;8.10;5.78;;;;;;;12.20;59.78;102445.84;7394566;19;20031;-47
2023/05/08 05:53:54;;;;;;;9.25;5.90;;;;;;;12.23;59.68;102450.16;7395194;19;20559;-47
2023/05/08 05:56:22;;;;;;;8.30;5.85;;;;;;;12.22;59.88;102444.94;7394000;19;20041;-47
2023/05/08 05:58:49;;;;;;;8.95;5.85;;;;;;;12.34;59.64;102447.78;7393055;19;20022;-46
2023/05/08 06:01:16;;;;;;;8.85;5.88;;;;;;;12.50;59.06;102449.63;7390432;19;20021;-51
2023/05/08 06:03:43;;;;;;;8.70;5.72;;;;;;;12.58;58.70;102450.91;7394737;19;20539;-51
2023/05/08 06:06:11;;;;;;;8.82;6.05;;;;;;;12.63;58.42;102445.31;7398645;19;20060;-50
2023/05/08 06:08:38;;;;;;;7.85;5.97;;;;;;;12.71;58.48;102447.59;7388815;19;20019;-51
2023/05/08 06:11:05;;;;;;;8.48;6.00;;;;;;;12.83;58.33;102449.56;7393235;19;20511;-49
2023/05/08 06:13:32;;;;;;;8.15;5.57;;;;;;;12.92;57.61;102447.22;7394594;19;20133;-51
2023/05/08 06:15:59;;;;;;;8.50;6.00;;;;;;;12.92;57.42;102439.25;7389641;19;20025;-52
2023/05/08 06:18:27;;;;;;;9.65;5.95;;;;;;;12.86;57.45;102439.59;7393576;19;20368;-51
2023/05/08 06:20:58;;;;;;;7.97;5.55;;;;;;;12.82;58.04;102437.19;7393178;19;20507;-50
2023/05/08 06:23:25;;;;;;;9.55;6.03;;;;;;;12.91;57.84;102434.88;7393709;19;20006;-52
2023/05/08 06:25:53;;;;;;;6.68;5.43;;;;;;;12.96;57.76;102428.44;7393696;19;20498;-50
2023/05/08 06:28:21;;;;;;;9.10;5.60;;;;;;;12.97;57.71;102430.16;7390249;19;20414;-48
2023/05/08 06:30:48;;;;;;;7.93;5.45;;;;;;;13.08;57.16;102425.94;7393355;19;20043;-49
2023/05/08 06:33:15;;;;;;;7.88;5.57;;;;;;;13.12;57.34;102426.59;7393804;19;20018;-49
2023/05/08 06:35:48;;;;;;;7.97;5.30;;;;;;;13.22;57.02;102418.97;7392869;19;20019;-52
2023/05/08 06:38:15;;;;;;;8.05;5.63;;;;;;;13.17;57.25;102422.75;7393615;19;20494;-53
2023/05/08 06:40:43;;;;;;;10.13;5.53;;;;;;;13.15;56.98;102423.78;7392000;19;20524;-51
2023/05/08 06:43:11;;;;;;;8.48;5.40;;;;;;;13.23;56.91;102424.22;7393167;19;20029;-51
2023/05/08 06:45:39;;;;;;;10.35;6.07;;;;;;;13.22;56.76;102419.81;7392748;19;20006;-50
2023/05/08 06:48:06;;;;;;;8.48;5.95;;;;;;;13.24;56.52;102423.28;7391998;19;20043;-52
2023/05/08 06:50:36;;;;;;;7.95;5.63;;;;;;;13.26;56.39;102432.03;7392105;19;20022;-52
2023/05/08 06:53:03;;;;;;;8.35;5.88;;;;;;;13.29;56.76;102425.69;7392687;19;20015;-50
2023/05/08 06:55:30;;;;;;;8.05;5.80;;;;;;;13.31;56.41;102418.44;7392560;19;20014;-51
2023/05/08 06:57:57;;;;;;;8.55;5.47;;;;;;;13.31;56.74;102424.63;7393032;19;20022;-51
2023/05/08 07:00:24;;;;;;;7.85;5.70;;;;;;;13.30;56.63;102422.06;7388355;19;20018;-51
2023/05/08 07:02:51;;;;;;;8.43;5.30;;;;;;;13.30;56.86;102419.41;7392712;19;20047;-50
2023/05/08 07:05:18;;;;;;;9.15;5.43;;;;;;;13.31;57.37;102413.97;7392538;19;20078;-51
2023/05/08 07:07:46;;;;;;;8.77;5.88;;;;;;;13.30;57.54;102414.94;7391972;19;20025;-50
2023/05/08 07:10:13;;;;;;;7.43;5.30;;;;;;;13.25;57.57;102416.16;7391683;19;20551;-50
2023/05/08 07:12:40;;;;;;;8.75;5.68;;;;;;;13.19;57.75;102414.69;7392463;19;20023;-49
2023/05/08 07:15:09;;;;;;;8.40;5.57;;;;;;;13.14;58.08;102406.97;7391504;19;20482;-47
2023/05/08 07:17:50;;;;;;;9.93;5.40;;;;;;;13.14;58.09;102406.13;7392430;19;20022;-51
2023/05/08 07:20:17;;;;;;;8.90;5.80;;;;;;;13.15;58.16;102403.34;7391041;19;20029;-47
2023/05/08 07:22:44;;;;;;;7.78;5.53;;;;;;;13.04;58.11;102402.25;7392714;19;20094;-51
2023/05/08 07:25:11;;;;;;;8.70;5.97;;;;;;;13.04;57.81;102403.13;7390847;19;20019;-50
2023/05/08 07:27:39;;;;;;;10.95;5.68;;;;;;;13.07;57.95;102399.44;7390457;19;20532;-50
2023/05/08 07:30:07;;;;;;;8.55;5.47;;;;;;;13.14;58.01;102391.00;7390907;19;20487;-51
2023/05/08 07:32:34;;;;;;;7.80;5.43;;;;;;;13.22;57.95;102385.25;7391547;19;20020;-51
2023/05/08 07:35:02;;;;;;;8.40;5.60;;;;;;;13.31;58.32;102391.84;7389298;19;20015;-47
2023/05/08 07:37:29;;;;;;;7.05;5.38;;;;;;;13.35;58.20;102394.22;7391525;19;20098;-50
2023/05/08 07:39:56;;;;;;;8.45;5.85;;;;;;;13.41;57.59;102380.56;7388182;19;20014;-51
2023/05/08 07:42:23;;;;;;;9.93;5.95;;;;;;;13.48;57.56;102378.41;7387901;19;20043;-52
2023/05/08 07:44:50;;;;;;;8.18;5.68;;;;;;;13.61;57.58;102386.50;7388689;19;20048;-50
2023/05/08 07:47:21;;;;;;;7.70;5.15;;;;;;;13.67;57.21;102388.81;7391318;19;20018;-52
2023/05/08 07:49:48;;;;;;;9.02;6.00;;;;;;;13.75;57.11;102375.03;7390432;19;20495;-50
2023/05/08 07:52:15;;;;;;;8.02;5.35;;;;;;;13.75;57.54;102375.03;7389845;19;20017;-51
2023/05/08 07:54:42;;;;;;;10.20;5.70;;;;;;;13.82;57.13;102373.72;7390944;19;20035;-49
2023/05/08 07:57:10;;;;;;;9.00;5.80;;;;;;;13.86;56.92;102373.41;7391007;19;20039;-51
2023/05/08 07:59:37;;;;;;;7.80;5.18;;;;;;;14.02;56.92;102378.66;7390818;19;20007;-49
2023/05/08 08:02:04;;;;;;;8.60;5.85;;;;;;;14.11;56.71;102380.72;7388837;19;20014;-49
2023/05/08 08:04:32;;;;;;;10.02;5.47;;;;;;;14.17;56.46;102371.50;7389344;19;20010;-50
2023/05/08 08:06:59;;;;;;;9.88;5.85;;;;;;;14.22;56.40;102374.72;7389912;19;20493;-48
2023/05/08 08:09:28;;;;;;;7.25;4.93;;;;;;;14.25;56.29;102371.03;7387982;19;20011;-48
2023/05/08 08:11:55;;;;;;;9.30;6.05;;;;;;;14.35;56.84;102369.50;7389318;19;20163;-48
2023/05/08 08:14:22;;;;;;;9.00;5.80;;;;;;;14.49;56.52;102372.16;7390860;19;20356;-47
2023/05/08 08:16:49;;;;;;;8.82;5.40;;;;;;;14.56;56.26;102377.94;7388156;19;20022;-47
2023/05/08 08:19:16;;;;;;;8.68;5.70;;;;;;;14.61;55.72;102373.16;7390091;19;20334;-48
2023/05/08 08:21:43;;;;;;;8.38;5.43;;;;;;;14.64;55.42;102370.31;7389375;19;20023;-47
2023/05/08 08:24:10;;;;;;;9.23;5.93;;;;;;;14.65;55.15;102374.66;7388784;19;20022;-50
2023/05/08 08:26:37;;;;;;;8.85;5.35;;;;;;;14.65;54.89;102372.00;7389651;19;20043;-48
2023/05/08 08:29:04;;;;;;;9.48;5.70;;;;;;;14.63;55.35;102373.94;7387589;19;20019;-50
2023/05/08 08:31:31;;;;;;;8.23;5.50;;;;;;;14.60;55.35;102371.47;7389089;19;20045;-49
2023/05/08 08:33:59;;;;;;;10.25;6.40;;;;;;;14.63;55.25;102371.28;7389843;19;20025;-47
2023/05/08 08:36:26;;;;;;;8.52;5.88;;;;;;;14.69;55.55;102381.53;7389525;19;20371;-46
2023/05/08 08:38:53;;;;;;;9.52;6.03;;;;;;;14.66;55.19;102383.56;7390891;19;20018;-48
2023/05/08 08:41:20;;;;;;;8.48;5.90;;;;;;;14.66;55.15;102378.22;7395875;19;20040;-48
2023/05/08 08:43:48;;;;;;;8.20;5.40;;;;;;;14.69;55.20;102375.34;7397405;19;20046;-49
2023/05/08 08:46:19;;;;;;;8.85;5.97;;;;;;;14.69;54.97;102378.88;7396650;19;20368;-47
2023/05/08 08:48:47;;;;;;;9.23;5.72;;;;;;;14.67;55.13;102380.78;7394541;19;20491;-51
2023/05/08 08:51:27;;;;;;;6.85;5.10;;;;;;;14.73;55.17;102367.06;7395555;19;20042;-49
2023/05/08 08:54:06;;;;;;;8.88;5.45;;;;;;;14.77;55.22;102365.91;7395569;19;20527;-51
2023/05/08 08:56:36;;;;;;;7.75;5.25;;;;;;;14.79;55.52;102371.13;7396482;19;20495;-49
2023/05/08 08:59:07;;;;;;;9.80;6.05;;;;;;;14.87;55.18;102372.31;7391869;19;20051;-50
2023/05/08 09:01:37;;;;;;;8.68;5.35;;;;;;;14.91;55.17;102377.47;7394565;19;20018;-50
2023/05/08 09:04:04;;;;;;;9.05;5.55;;;;;;;14.95;55.48;102377.16;7395085;19;20019;-47
2023/05/08 09:06:36;;;;;;;8.77;5.47;;;;;;;15.03;55.40;102379.31;7395211;19;20019;-52
2023/05/08 09:09:04;;;;;;;7.57;4.85;;;;;;;15.10;55.34;102364.59;7394723;19;20014;-49
2023/05/08 09:11:32;;;;;;;10.88;6.07;;;;;;;15.20;55.30;102368.38;7395496;19;20018;-48
2023/05/08 09:13:59;;;;;;;9.60;6.10;;;;;;;15.28;55.28;102365.19;7396543;19;20336;-48
2023/05/08 09:16:27;;;;;;;9.85;6.03;;;;;;;15.29;55.11;102365.06;7396012;19;20018;-50
2023/05/08 09:18:54;;;;;;;9.63;6.18;;;;;;;15.36;55.43;102363.69;7394200;19;20010;-54
2023/05/08 09:21:22;;;;;;;10.32;6.60;;;;;;;15.51;54.80;102360.94;7394750;19;20023;-50
2023/05/08 09:24:00;;;;;;;8.95;5.93;;;;;;;15.63;54.34;102365.44;7396775;19;20018;-49
2023/05/08 09:26:33;;;;;;;9.63;6.28;;;;;;;15.71;54.73;102356.91;7395498;19;20018;-50
2023/05/08 09:29:21;;;;;;;9.88;6.05;;;;;;;15.81;55.04;102360.66;7391938;19;20502;-49
2023/05/08 09:31:52;;;;;;;9.75;6.05;;;;;;;15.89;55.06;102363.66;7393972;19;20029;-52
2023/05/08 09:34:26;;;;;;;12.80;6.72;;;;;;;16.01;55.31;102359.25;7396155;19;20354;-51
2023/05/08 09:36:55;;;;;;;12.80;6.60;;;;;;;16.02;54.55;102356.47;7393423;19;20039;-50
2023/05/08 09:39:24;;;;;;;9.27;6.85;;;;;;;16.17;55.27;102359.84;7394564;19;20025;-47
2023/05/08 09:41:59;;;;;;;12.70;6.65;;;;;;;16.26;54.93;102369.91;7393810;19;20106;-49
2023/05/08 09:44:27;;;;;;;12.00;6.80;;;;;;;16.26;54.84;102367.25;7395077;19;20014;-51
2023/05/08 09:47:19;;;;;;;10.63;7.15;;;;;;;16.31;55.45;102362.41;7394592;19;20010;-48
2023/05/08 09:49:57;;;;;;;;;;;;;;;16.22;54.41;102363.09;7392900;19;20018;-50
2023/05/08 09:52:25;;;;;;;11.85;6.85;;;;;;;16.25;54.99;102359.31;7392601;19;19926;-48
2023/05/08 09:55:07;;;;;;;8.23;6.32;;;;;;;16.30;54.28;102352.69;7394225;19;20077;-51
2023/05/08 09:57:39;;;;;;;10.38;7.00;;;;;;;16.29;54.71;102348.31;7395271;19;20093;-52
2023/05/08 10:00:11;;;;;;;10.40;6.85;;;;;;;16.42;55.10;102355.44;7393931;19;20022;-48
2023/05/08 10:02:40;;;;;;;10.40;6.68;;;;;;;16.42;54.36;102352.75;7394614;19;20093;-49
2023/05/08 10:05:24;;;;;;;9.82;6.22;;;;;;;16.46;54.51;102362.25;7394626;19;20014;-51
2023/05/08 10:07:51;;;;;;;10.68;6.70;;;;;;;16.46;54.51;102351.56;7393024;19;20019;-51
2023/05/08 10:10:29;;;;;;;9.13;6.60;;;;;;;16.50;54.35;102353.91;7393642;19;20364;-50
2023/05/08 10:12:57;;;;;;;8.13;6.18;;;;;;;16.50;54.59;102353.91;7394608;19;20011;-50
2023/05/08 10:15:28;;;;;;;11.32;6.82;;;;;;;16.62;54.01;102351.28;7393407;19;20022;-53
2023/05/08 10:18:06;;;;;;;10.07;6.40;;;;;;;16.58;53.87;102351.50;7394378;19;20042;-51
2023/05/08 10:20:37;;;;;;;9.18;6.65;;;;;;;16.50;53.86;102353.06;7392579;19;20046;-51
2023/05/08 10:23:10;;;;;;;10.85;6.57;;;;;;;16.49;53.81;102337.97;7394055;19;20499;-53
2023/05/08 10:25:43;;;;;;;10.43;6.30;;;;;;;16.46;54.17;102338.19;7393932;19;20018;-50
2023/05/08 10:28:35;;;;;;;8.88;6.10;;;;;;;16.49;54.36;102337.97;7392750;19;20503;-51
2023/05/08 10:31:04;;;;;;;11.63;6.93;;;;;;;16.52;54.69;102346.63;7392452;19;20022;-51
2023/05/08 10:33:34;;;;;;;10.93;6.53;;;;;;;16.66;54.12;102350.94;7391918;19;20396;-51
2023/05/08 10:36:01;;;;;;;9.90;7.40;;;;;;;16.77;54.52;102343.00;7393438;19;20057;-50
2023/05/08 10:38:29;;;;;;;9.35;6.90;;;;;;;16.89;54.24;102349.25;7392269;19;20487;-50
2023/05/08 10:41:00;;;;;;;10.18;7.07;;;;;;;16.97;54.17;102349.53;7392738;19;20025;-51
2023/05/08 10:43:28;;;;;;;10.10;7.00;;;;;;;17.02;54.62;102341.19;7393214;19;20519;-49
2023/05/08 10:45:57;;;;;;;11.23;7.35;;;;;;;17.06;54.40;102342.66;7391482;19;20022;-51
2023/05/08 10:48:28;;;;;;;8.18;6.30;;;;;;;17.01;54.58;102345.66;7390598;19;20019;-49
2023/05/08 10:51:01;;;;;;;10.50;7.18;;;;;;;17.03;53.68;102337.53;7392498;19;20021;-51
2023/05/08 10:53:40;;;;;;;11.00;7.10;;;;;;;17.08;54.00;102338.03;7393108;19;20034;-51
2023/05/08 10:56:08;;;;;;;10.73;7.03;;;;;;;17.03;54.32;102348.25;7393059;19;20018;-48
2023/05/08 10:58:38;;;;;;;9.73;7.15;;;;;;;17.00;54.08;102333.25;7392298;19;20014;-51
2023/05/08 11:01:08;;;;;;;10.68;7.03;;;;;;;17.01;54.36;102336.78;7388962;19;20394;-48
2023/05/08 11:03:45;;;;;;;12.13;7.50;;;;;;;17.00;54.44;102330.56;7392664;19;20014;-50
2023/05/08 11:06:13;;;;;;;9.45;6.97;;;;;;;17.02;54.45;102330.47;7392457;19;20014;-48
2023/05/08 11:08:49;;;;;;;10.55;7.03;;;;;;;17.24;55.18;102327.84;7391420;19;20039;-51
2023/05/08 11:11:24;;;;;;;11.02;7.80;;;;;;;17.29;54.29;102330.19;7391688;19;20022;-49
2023/05/08 11:13:59;;;;;;;9.25;7.30;;;;;;;17.33;54.17;102334.34;7392694;19;20022;-50
2023/05/08 11:16:55;;;;;;;10.80;7.70;;;;;;;17.45;54.58;102320.00;7391911;19;20088;-49
2023/05/08 11:19:23;;;;;;;10.15;6.45;;;;;;;17.37;54.02;102325.09;7391284;19;20018;-46
2023/05/08 11:22:09;;;;;;;11.55;7.78;;;;;;;17.40;53.94;102324.88;7389234;19;20020;-48
2023/05/08 11:24:38;;;;;;;10.80;7.60;;;;;;;17.45;54.66;102321.81;7390939;19;20018;-47
2023/05/08 11:27:05;;;;;;;9.80;6.90;;;;;;;17.52;54.37;102318.53;7392692;19;20104;-46
2023/05/08 11:29:32;;;;;;;9.38;6.50;;;;;;;17.53;54.26;102311.34;7389693;19;20014;-51
2023/05/08 11:32:00;;;;;;;9.30;6.95;;;;;;;17.53;53.46;102314.88;7390105;19;20053;-47
2023/05/08 11:34:42;;;;;;;9.98;7.22;;;;;;;17.57;53.60;102322.69;7389505;19;20030;-47
2023/05/08 11:37:23;;;;;;;9.27;6.70;;;;;;;17.55;54.82;102320.13;7391786;19;20019;-48
2023/05/08 11:39:50;;;;;;;12.18;8.27;;;;;;;17.70;54.21;102318.06;7390874;19;20039;-48
2023/05/08 11:42:32;;;;;;;9.52;7.30;;;;;;;17.82;53.95;102321.63;7390040;19;20022;-48